Time;durP1;ratioP1;P1;durP2;ratioP2;P2;SDS_P1;SDS_P2;PMS_P1;PMS_P2;Temp;Humidity;BMP_temperature;BMP_pressure;BME280_temperature;BME280_humidity;BME280_pressure;Samples;Min_cycle;Max_cycle;Signal;HPM_P1;HPM_P2
2023/05/23 00:01:49;;;;;;;24.00;12.93;;;;;;;-143.21;92.47;72268.50;5026086;28;20236;-77
2023/05/23 00:04:18;;;;;;;15.60;11.00;;;;;;;-143.21;92.55;72276.44;5027737;28;20229;-78
2023/05/23 00:06:46;;;;;;;15.03;11.23;;;;;;;-143.21;93.02;72272.47;5024458;28;20678;-78
2023/05/23 00:09:13;;;;;;;15.63;11.33;;;;;;;-143.21;92.62;72282.38;5029313;28;20678;-78
2023/05/23 00:11:43;;;;;;;16.77;10.77;;;;;;;-143.21;92.10;72292.31;5028786;28;20286;-78
2023/05/23 00:14:12;;;;;;;14.83;10.47;;;;;;;-143.21;92.43;72298.25;5025383;28;20203;-78
2023/05/23 00:16:41;;;;;;;14.97;10.63;;;;;;;-143.21;92.73;72296.28;5025639;28;20203;-78
2023/05/23 00:19:08;;;;;;;16.97;10.93;;;;;;;-143.21;92.79;72292.31;5028348;28;20270;-78
2023/05/23 00:21:37;;;;;;;13.53;9.07;;;;;;;-143.21;92.30;72298.25;5025967;28;20278;-78
2023/05/23 00:24:04;;;;;;;14.83;9.83;;;;;;;-143.21;91.55;72322.06;5024753;28;20207;-80
2023/05/23 00:26:33;;;;;;;12.47;8.70;;;;;;;-143.21;91.84;72363.69;5027508;28;20223;-83
2023/05/23 00:28:59;;;;;;;14.53;10.47;;;;;;;-143.21;92.95;72383.53;5016590;28;20257;-83
2023/05/23 00:31:26;;;;;;;17.90;11.23;;;;;;;-143.21;94.21;72389.47;5023201;28;20198;-82
2023/05/23 00:33:53;;;;;;;17.37;10.40;;;;;;;-143.21;95.38;72385.50;5023803;28;20203;-81
2023/05/23 00:36:21;;;;;;;16.77;11.27;;;;;;;-143.21;95.69;72367.66;5020247;28;20630;-83
2023/05/23 00:38:49;;;;;;;19.00;10.97;;;;;;;-143.21;95.54;72351.78;5025945;28;20285;-77
2023/05/23 00:41:18;;;;;;;15.13;10.97;;;;;;;-143.21;94.57;72335.94;5024314;28;20271;-78
2023/05/23 00:43:45;;;;;;;14.03;10.47;;;;;;;-143.21;94.78;72333.94;5027602;28;20195;-78
2023/05/23 00:46:12;;;;;;;12.33;9.00;;;;;;;-143.21;93.94;72328.00;5018741;28;20681;-82
2023/05/23 00:48:39;;;;;;;16.50;9.97;;;;;;;-143.21;93.47;72322.06;5026148;28;20211;-81
2023/05/23 00:51:06;;;;;;;13.60;7.57;;;;;;;-143.21;92.92;72322.06;5025897;28;20234;-81
2023/05/23 00:53:34;;;;;;;10.57;7.77;;;;;;;-143.21;92.19;72331.97;5022635;28;20201;-81
2023/05/23 00:56:03;;;;;;;14.03;7.07;;;;;;;-143.21;91.83;72324.03;5021783;28;20199;-83
2023/05/23 00:58:31;;;;;;;13.67;9.07;;;;;;;-143.21;91.63;72324.03;5023730;28;20203;-82
2023/05/23 01:00:58;;;;;;;14.93;9.80;;;;;;;-143.21;91.77;72339.91;5018519;28;20198;-81
2023/05/23 01:03:27;;;;;;;13.97;10.30;;;;;;;-143.21;91.90;72339.91;5025609;28;20191;-80
2023/05/23 01:05:54;;;;;;;17.80;10.37;;;;;;;-143.21;91.67;72341.88;5024724;28;20233;-81
2023/05/23 01:08:21;;;;;;;16.10;11.87;;;;;;;-143.21;91.55;72335.94;5028450;28;20222;-77
2023/05/23 01:10:48;;;;;;;18.07;12.00;;;;;;;-143.21;91.69;72341.88;5025436;28;20199;-77
2023/05/23 01:13:27;;;;;;;23.33;13.10;;;;;;;-143.21;91.99;72347.84;5028285;28;20201;-77
2023/05/23 01:16:00;;;;;;;17.73;13.43;;;;;;;-143.21;92.31;72355.75;5026249;28;20646;-77
2023/05/23 01:18:33;;;;;;;21.20;14.77;;;;;;;-143.21;92.34;72355.75;5023640;28;20191;-77
2023/05/23 01:21:06;;;;;;;22.97;15.20;;;;;;;-143.21;92.50;72353.78;5026825;28;20257;-76
2023/05/23 01:23:54;;;;;;;19.60;14.80;;;;;;;-143.21;91.66;72345.84;5026451;28;20887;-75
2023/05/23 01:26:44;;;;;;;22.13;13.93;;;;;;;-143.21;91.77;72351.78;5024447;28;20554;-75
2023/05/23 01:29:18;;;;;;;20.20;14.67;;;;;;;-143.21;91.66;72351.78;5027941;28;20730;-75
2023/05/23 01:31:47;;;;;;;20.47;14.30;;;;;;;-143.21;91.16;72341.88;5022206;28;20198;-75
2023/05/23 01:34:15;;;;;;;19.17;12.87;;;;;;;-143.21;90.71;72347.84;5024589;28;20214;-75
2023/05/23 01:36:43;;;;;;;16.10;11.73;;;;;;;-143.21;90.54;72351.78;5026341;28;20226;-75
2023/05/23 01:39:10;;;;;;;18.53;12.47;;;;;;;-143.21;90.42;72347.84;5027480;28;20207;-76
2023/05/23 01:41:37;;;;;;;22.73;12.17;;;;;;;-143.21;90.21;72343.88;5027696;28;20245;-75
2023/05/23 01:44:04;;;;;;;18.87;13.43;;;;;;;-143.21;90.55;72353.78;5025768;28;20206;-76
2023/05/23 01:46:34;;;;;;;21.53;13.50;;;;;;;-143.21;90.94;72351.78;5026282;28;20195;-76
2023/05/23 01:49:03;;;;;;;17.13;12.80;;;;;;;-143.21;91.39;72373.63;5024537;28;20195;-76
2023/05/23 01:51:30;;;;;;;19.23;13.27;;;;;;;-143.21;90.87;72397.41;5025282;28;20206;-76
2023/05/23 01:53:58;;;;;;;19.93;13.30;;;;;;;-143.21;91.20;72431.13;5024687;28;20198;-76
2023/05/23 01:56:26;;;;;;;22.17;14.03;;;;;;;-143.21;92.91;72443.03;5026348;28;20206;-76
2023/05/23 01:58:53;;;;;;;19.83;14.30;;;;;;;-143.21;94.62;72443.03;5026333;28;20205;-76
2023/05/23 02:01:20;;;;;;;18.57;12.60;;;;;;;-143.21;95.01;72437.06;5023525;28;20230;-76
2023/05/23 02:03:49;;;;;;;19.00;14.00;;;;;;;-143.21;94.63;72431.13;5021597;28;20278;-76
2023/05/23 02:06:15;;;;;;;20.67;13.57;;;;;;;-143.21;94.28;72421.22;5026785;28;20202;-76
2023/05/23 02:08:42;;;;;;;21.23;14.40;;;;;;;-143.21;93.54;72415.25;5026873;28;20577;-76
2023/05/23 02:11:09;;;;;;;20.00;14.70;;;;;;;-143.21;93.42;72417.25;5025694;28;20208;-77
2023/05/23 02:13:36;;;;;;;19.43;13.63;;;;;;;-143.21;93.28;72415.25;5027346;28;20234;-76
2023/05/23 02:16:03;;;;;;;20.37;13.70;;;;;;;-143.21;93.06;72415.25;5025708;28;20268;-76
2023/05/23 02:18:30;;;;;;;19.63;12.80;;;;;;;-143.21;92.71;72419.22;5025784;28;20265;-77
2023/05/23 02:20:58;;;;;;;16.90;12.73;;;;;;;-143.21;92.71;72407.31;5022917;28;20198;-77
2023/05/23 02:23:25;;;;;;;21.50;12.47;;;;;;;-143.21;92.29;72407.31;5025970;28;20199;-77
2023/05/23 02:25:52;;;;;;;16.97;10.53;;;;;;;-143.21;92.15;72397.41;5023089;28;20194;-77
2023/05/23 02:28:19;;;;;;;10.60;8.07;;;;;;;-143.21;91.79;72399.41;5023834;28;20210;-77
2023/05/23 02:30:46;;;;;;;15.00;7.80;;;;;;;-143.21;91.39;72403.34;5024687;28;20214;-77
2023/05/23 02:33:12;;;;;;;10.57;6.23;;;;;;;-143.21;91.37;72407.31;5023366;28;20203;-77
2023/05/23 02:35:39;;;;;;;10.03;6.20;;;;;;;-143.21;91.60;72419.22;5026666;28;20602;-78
2023/05/23 02:38:08;;;;;;;9.00;5.60;;;;;;;-143.21;91.52;72423.19;5028476;28;20273;-77
2023/05/23 02:40:34;;;;;;;9.53;6.47;;;;;;;-143.21;91.47;72429.16;5031209;28;20202;-77
2023/05/23 02:43:01;;;;;;;14.93;6.37;;;;;;;-143.21;91.90;72431.13;5029146;28;20671;-77
2023/05/23 02:45:28;;;;;;;14.10;8.10;;;;;;;-143.21;92.36;72435.09;5030766;28;20195;-77
2023/05/23 02:47:55;;;;;;;13.10;9.13;;;;;;;-143.21;92.60;72429.16;5026438;28;20226;-77
2023/05/23 02:50:21;;;;;;;15.20;9.90;;;;;;;-143.21;92.12;72415.25;5027941;28;20198;-77
2023/05/23 02:52:48;;;;;;;15.33;10.30;;;;;;;-143.21;92.03;72425.19;5028807;28;20206;-77
2023/05/23 02:55:16;;;;;;;16.07;9.27;;;;;;;-143.21;91.88;72419.22;5029158;28;20199;-77
2023/05/23 02:57:43;;;;;;;15.90;9.40;;;;;;;-143.21;91.60;72413.28;5029453;28;20195;-77
2023/05/23 03:00:12;;;;;;;12.77;9.50;;;;;;;-143.21;91.58;72411.28;5027012;28;20466;-77
2023/05/23 03:02:38;;;;;;;13.47;9.50;;;;;;;-143.21;91.61;72415.25;5030540;28;20258;-78
2023/05/23 03:05:06;;;;;;;17.17;9.40;;;;;;;-143.21;91.12;72403.34;5029229;28;20210;-78
2023/05/23 03:07:33;;;;;;;12.97;8.23;;;;;;;-143.21;91.44;72423.19;5026817;28;20233;-78
2023/05/23 03:10:00;;;;;;;12.27;8.00;;;;;;;-143.21;91.21;72454.91;5026334;28;20736;-77
2023/05/23 03:12:29;;;;;;;12.23;8.10;;;;;;;-143.21;91.66;72478.72;5029164;28;20201;-78
2023/05/23 03:14:55;;;;;;;19.03;12.20;;;;;;;-143.21;94.05;72498.56;5025056;28;20701;-77
2023/05/23 03:17:22;;;;;;;19.43;14.03;;;;;;;-143.21;95.24;72490.63;5028770;28;20203;-83
2023/05/23 03:19:49;;;;;;;21.30;13.83;;;;;;;-143.21;95.36;72478.72;5026068;28;20580;-82
2023/05/23 03:22:16;;;;;;;17.10;12.30;;;;;;;-143.21;95.65;72464.84;5026808;28;20198;-82
2023/05/23 03:24:42;;;;;;;21.40;13.40;;;;;;;-143.21;94.86;72448.97;5025385;28;20195;-84
2023/05/23 03:27:09;;;;;;;21.67;14.07;;;;;;;-143.21;94.64;72437.06;5030669;28;20298;-83
2023/05/23 03:29:38;;;;;;;22.27;12.63;;;;;;;-143.21;94.44;72429.16;5022802;28;20578;-82
2023/05/23 03:32:05;;;;;;;23.50;12.27;;;;;;;-143.21;94.33;72419.22;5026543;28;20199;-83
2023/05/23 03:34:32;;;;;;;20.43;12.13;;;;;;;-143.21;94.36;72409.31;5021690;28;20199;-84
2023/05/23 03:36:59;;;;;;;20.33;12.63;;;;;;;-143.21;94.62;72399.41;5028191;28;20643;-83
2023/05/23 03:39:26;;;;;;;20.80;13.30;;;;;;;-143.21;94.48;72399.41;5016690;28;20203;-83
2023/05/23 03:41:53;;;;;;;24.07;14.40;;;;;;;-143.21;94.78;72391.47;5020707;28;20667;-83
2023/05/23 03:44:20;;;;;;;29.30;15.67;;;;;;;-143.21;95.04;72389.47;5024175;28;20195;-83
2023/05/23 03:46:48;;;;;;;27.23;15.07;;;;;;;-143.21;95.11;72381.53;5026274;28;20561;-82
2023/05/23 03:49:15;;;;;;;30.73;15.67;;;;;;;-143.21;94.42;72367.66;5016195;28;20269;-85
2023/05/23 03:51:51;;;;;;;24.63;15.00;;;;;;;-143.21;94.88;72399.41;5021684;28;20604;-84
2023/05/23 03:54:18;;;;;;;29.97;15.60;;;;;;;-143.21;95.61;72397.41;5024720;28;20210;-84
2023/05/23 03:56:45;;;;;;;26.07;15.17;;;;;;;-143.21;96.28;72397.41;5025358;28;20203;-80
2023/05/23 03:59:12;;;;;;;23.47;13.57;;;;;;;-143.21;96.63;72393.44;5021841;28;20203;-81
2023/05/23 04:01:39;;;;;;;23.37;14.47;;;;;;;-143.21;96.63;72387.50;5020983;28;20296;-80
2023/05/23 04:04:08;;;;;;;19.50;13.17;;;;;;;-143.21;96.35;72365.69;5026435;28;20700;-80
2023/05/23 04:06:34;;;;;;;21.70;14.03;;;;;;;-143.21;95.94;72367.66;5023276;28;20203;-81
2023/05/23 04:09:02;;;;;;;21.93;13.17;;;;;;;-143.21;95.71;72365.69;5021898;28;20231;-81
2023/05/23 04:11:28;;;;;;;25.03;13.73;;;;;;;-143.21;95.34;72367.66;5025624;28;20665;-76
2023/05/23 04:13:55;;;;;;;30.77;14.53;;;;;;;-143.21;95.07;72377.56;5027555;28;20191;-76
2023/05/23 04:16:22;;;;;;;23.97;14.30;;;;;;;-143.21;95.55;72369.66;5025465;28;20719;-79
2023/05/23 04:18:50;;;;;;;55.53;14.97;;;;;;;-143.21;95.83;72399.41;5026679;28;20188;-77
2023/05/23 04:21:18;;;;;;;47.90;13.73;;;;;;;-143.21;96.56;72423.19;5028510;28;20630;-77
2023/05/23 04:23:46;;;;;;;21.47;13.50;;;;;;;-143.21;97.43;72427.16;5027253;28;20196;-77
2023/05/23 04:26:12;;;;;;;31.50;13.23;;;;;;;-143.21;98.67;72450.97;5026992;28;20199;-79
2023/05/23 04:28:39;;;;;;;30.17;14.60;;;;;;;-143.21;99.53;72462.84;5028381;28;20230;-77
2023/05/23 04:31:06;;;;;;;22.17;14.33;;;;;;;-143.21;100.00;72462.84;5024175;28;20212;-77
2023/05/23 04:33:33;;;;;;;25.53;13.97;;;;;;;-143.21;100.00;72447.00;5027833;28;20665;-76
2023/05/23 04:36:01;;;;;;;22.90;13.80;;;;;;;-143.21;100.00;72439.06;5025483;28;20234;-77
2023/05/23 04:38:29;;;;;;;21.87;14.57;;;;;;;-143.21;99.41;72454.91;5019840;28;20275;-77
2023/05/23 04:40:57;;;;;;;22.90;14.07;;;;;;;-143.21;98.34;72476.75;5026340;28;20199;-77
2023/05/23 04:43:26;;;;;;;46.03;15.20;;;;;;;-143.21;99.37;72490.63;5028502;28;20282;-78
2023/05/23 04:45:54;;;;;;;21.13;13.17;;;;;;;-143.21;100.00;72484.66;5020576;28;20227;-79
2023/05/23 04:48:21;;;;;;;20.53;13.57;;;;;;;-143.21;100.00;72462.84;5025143;28;20604;-76
2023/05/23 04:50:50;;;;;;;21.30;14.20;;;;;;;-143.21;100.00;72447.00;5026143;28;20221;-77
2023/05/23 04:53:16;;;;;;;21.47;13.93;;;;;;;-143.21;100.00;72435.09;5017089;28;20254;-87
2023/05/23 04:55:45;;;;;;;21.57;13.00;;;;;;;-143.21;100.00;72419.22;5019315;28;20207;-85
2023/05/23 04:58:12;;;;;;;18.60;12.33;;;;;;;-143.21;100.00;72415.25;5022275;28;20202;-86
2023/05/23 05:00:39;;;;;;;19.53;12.43;;;;;;;-143.21;99.92;72401.38;5019218;28;20345;-89
2023/05/23 05:03:08;;;;;;;23.70;12.97;;;;;;;-143.21;99.72;72391.47;5022255;28;21073;-87
2023/05/23 05:05:35;;;;;;;19.20;12.43;;;;;;;-143.21;99.21;72379.56;5017316;28;20322;-87
2023/05/23 05:08:02;;;;;;;19.17;11.70;;;;;;;-143.21;98.63;72367.66;5027159;28;20226;-78
2023/05/23 05:10:29;;;;;;;20.07;11.73;;;;;;;-143.21;98.05;72375.59;5023528;28;20578;-77
2023/05/23 05:12:57;;;;;;;23.77;11.97;;;;;;;-143.21;97.46;72367.66;5026837;28;20191;-78
2023/05/23 05:15:24;;;;;;;15.83;11.40;;;;;;;-143.21;97.22;72367.66;5025556;28;20580;-78
2023/05/23 05:17:51;;;;;;;18.60;12.33;;;;;;;-143.21;97.29;72365.69;5027465;28;20198;-77
2023/05/23 05:20:18;;;;;;;19.47;11.73;;;;;;;-143.21;97.04;72359.72;5025438;28;20654;-78
2023/05/23 05:22:45;;;;;;;24.33;13.30;;;;;;;-143.21;96.30;72349.81;5025366;28;20215;-77
2023/05/23 05:25:12;;;;;;;21.87;12.97;;;;;;;-143.21;95.83;72339.91;5026381;28;20203;-86
2023/05/23 05:27:40;;;;;;;23.03;12.57;;;;;;;-143.21;96.09;72329.97;5023016;28;20203;-87
2023/05/23 05:30:10;;;;;;;19.23;13.30;;;;;;;-143.21;95.74;72320.06;5030650;28;20222;-88
2023/05/23 05:32:36;;;;;;;18.97;13.17;;;;;;;-143.21;95.05;72312.13;5023778;28;20872;-88
2023/05/23 05:35:04;;;;;;;17.43;12.57;;;;;;;-143.21;95.25;72320.06;5026731;28;20203;-86
2023/05/23 05:37:31;;;;;;;24.10;13.50;;;;;;;-143.21;95.55;72312.13;5023360;28;20638;-86
2023/05/23 05:39:58;;;;;;;19.40;13.67;;;;;;;-143.21;95.72;72304.19;5024776;28;20199;-88
2023/05/23 05:42:25;;;;;;;24.20;14.27;;;;;;;-143.21;94.17;72306.19;5020839;28;20205;-88
2023/05/23 05:44:51;;;;;;;44.80;15.30;;;;;;;-143.21;93.31;72328.00;5022721;28;20705;-87
2023/05/23 05:47:20;;;;;;;21.90;14.07;;;;;;;-143.21;93.81;72333.94;5023364;28;20218;-87
2023/05/23 05:49:47;;;;;;;21.97;13.90;;;;;;;-143.21;94.80;72333.94;5021872;28;20314;-88
2023/05/23 05:52:16;;;;;;;23.00;15.37;;;;;;;-143.21;95.22;72326.00;5021720;28;20203;-77
2023/05/23 05:54:42;;;;;;;19.07;13.97;;;;;;;-143.21;95.33;72304.19;5027774;28;20666;-77
2023/05/23 05:57:09;;;;;;;20.87;14.47;;;;;;;-143.21;94.59;72298.25;5023806;28;20276;-77
2023/05/23 05:59:36;;;;;;;24.23;15.43;;;;;;;-143.21;94.40;72300.25;5026851;28;20209;-76
2023/05/23 06:02:03;;;;;;;23.47;15.53;;;;;;;-143.21;93.79;72335.94;5023038;28;20756;-77
2023/05/23 06:04:31;;;;;;;22.50;15.23;;;;;;;-143.21;94.54;72353.78;5025128;28;20195;-77
2023/05/23 06:06:58;;;;;;;26.17;16.27;;;;;;;-143.21;95.61;72369.66;5027022;28;20286;-78
2023/05/23 06:09:25;;;;;;;26.40;16.67;;;;;;;-143.21;96.41;72357.75;5026234;28;20218;-78
2023/05/23 06:11:51;;;;;;;26.17;16.77;;;;;;;-143.21;97.19;72349.81;5021440;28;20218;-78
2023/05/23 06:14:18;;;;;;;27.80;17.87;;;;;;;-143.21;96.70;72331.97;5025800;28;20658;-78
2023/05/23 06:16:45;;;;;;;24.77;16.90;;;;;;;-143.21;96.51;72324.03;5022230;28;20266;-77
2023/05/23 06:19:12;;;;;;;28.40;17.40;;;;;;;-143.21;96.36;72302.22;5018511;28;20206;-78
2023/05/23 06:21:40;;;;;;;26.13;16.97;;;;;;;-143.21;94.95;72292.31;5023795;28;20203;-78
2023/05/23 06:24:07;;;;;;;26.47;17.73;;;;;;;-143.21;94.49;72282.38;5022478;28;21383;-76
2023/05/23 06:26:33;;;;;;;30.10;18.17;;;;;;;-143.21;94.15;72280.41;5024437;28;20211;-76
2023/05/23 06:29:00;;;;;;;27.27;17.50;;;;;;;-143.21;93.30;72274.47;5020329;28;20223;-78
2023/05/23 06:31:27;;;;;;;25.70;17.87;;;;;;;-143.21;94.20;72290.31;5025782;28;20190;-77
2023/05/23 06:33:54;;;;;;;26.63;17.97;;;;;;;-143.21;94.25;72276.44;5022749;28;20212;-77
2023/05/23 06:36:21;;;;;;;29.93;18.57;;;;;;;-143.21;94.65;72276.44;5024310;28;20187;-86
2023/05/23 06:38:49;;;;;;;27.80;17.83;;;;;;;-143.21;95.34;72262.56;5025949;28;20199;-86
2023/05/23 06:41:16;;;;;;;35.23;19.10;;;;;;;-143.21;94.40;72234.78;5026247;28;20230;-87
2023/05/23 06:43:43;;;;;;;33.73;19.97;;;;;;;-143.21;93.94;72212.97;5018071;28;20195;-87
2023/05/23 06:46:10;;;;;;;33.33;20.27;;;;;;;-143.21;94.12;72191.16;5024077;28;20199;-88
2023/05/23 06:48:36;;;;;;;40.53;19.10;;;;;;;-143.21;92.83;72165.38;5016304;28;20227;-87
2023/05/23 06:51:03;;;;;;;28.53;19.17;;;;;;;-143.21;91.76;72157.44;5012063;28;20211;-87
2023/05/23 06:53:30;;;;;;;29.17;18.13;;;;;;;-143.21;91.60;72141.59;5016018;28;20879;-86
2023/05/23 06:55:58;;;;;;;28.93;19.40;;;;;;;-143.21;90.81;72145.56;5023019;28;20202;-76
2023/05/23 06:58:26;;;;;;;26.73;19.30;;;;;;;-143.21;90.12;72137.63;5025337;28;20191;-77
2023/05/23 07:00:52;;;;;;;28.10;18.27;;;;;;;-143.21;89.23;72137.63;5022840;28;20196;-78
2023/05/23 07:03:19;;;;;;;26.97;18.97;;;;;;;-143.21;89.01;72137.63;5021901;28;20623;-77
2023/05/23 07:05:46;;;;;;;31.10;18.27;;;;;;;-143.21;89.48;72137.63;5023693;28;20245;-81
2023/05/23 07:08:13;;;;;;;29.53;18.53;;;;;;;-143.21;88.94;72129.69;5019787;28;20211;-77
2023/05/23 07:10:40;;;;;;;26.80;18.00;;;;;;;-143.21;89.03;72127.72;5021767;28;20621;-77
2023/05/23 07:13:09;;;;;;;29.67;17.93;;;;;;;-143.21;88.92;72111.84;5021894;28;20209;-77
2023/05/23 07:15:35;;;;;;;27.17;17.30;;;;;;;-143.21;88.85;72097.97;5026628;28;20710;-77
2023/05/23 07:18:02;;;;;;;26.27;18.53;;;;;;;-143.21;88.09;72082.09;5025646;28;20199;-82
2023/05/23 07:20:29;;;;;;;30.70;18.97;;;;;;;-143.21;87.86;72078.13;5023138;28;20664;-81
2023/05/23 07:22:56;;;;;;;27.80;18.87;;;;;;;-143.21;88.11;72080.13;5024738;28;20735;-82
2023/05/23 07:25:23;;;;;;;22.40;17.07;;;;;;;-143.21;88.99;72078.13;5026898;28;20262;-82
2023/05/23 07:27:51;;;;;;;21.97;16.07;;;;;;;-143.21;86.09;72088.03;5025237;28;20199;-82
2023/05/23 07:30:20;;;;;;;24.23;15.37;;;;;;;-143.21;86.30;72115.81;5027795;28;20272;-85
2023/05/23 07:32:47;;;;;;;33.77;18.83;;;;;;;-143.21;90.22;72115.81;5029402;28;20797;-82
2023/05/23 07:35:14;;;;;;;33.17;20.17;;;;;;;-143.21;91.37;72101.94;5021185;28;20296;-84
2023/05/23 07:37:41;;;;;;;36.00;19.43;;;;;;;-143.21;92.87;72080.13;5021542;28;20203;-83
2023/05/23 07:40:09;;;;;;;30.60;19.80;;;;;;;-143.21;92.34;72044.41;5026330;28;21604;-83
2023/05/23 07:42:36;;;;;;;29.47;15.57;;;;;;;-143.21;93.06;71988.91;5026506;28;20209;-83
2023/05/23 07:45:03;;;;;;;36.80;22.23;;;;;;;-143.21;91.23;71967.09;5022434;28;20281;-83
2023/05/23 07:47:31;;;;;;;47.43;21.83;;;;;;;-143.21;87.53;71933.38;5026221;28;20198;-77
2023/05/23 07:50:01;;;;;;;40.17;23.30;;;;;;;-143.21;85.83;71921.47;5024500;28;20214;-78
2023/05/23 07:52:29;;;;;;;39.27;23.20;;;;;;;-143.21;85.17;71909.56;5024998;28;20194;-78
2023/05/23 07:54:56;;;;;;;41.43;23.57;;;;;;;-143.21;85.27;71897.69;5027308;28;20190;-78
2023/05/23 07:57:23;;;;;;;44.87;24.03;;;;;;;-143.21;84.66;71885.78;5026502;28;20678;-78
2023/05/23 07:59:50;;;;;;;48.53;24.57;;;;;;;-143.21;84.54;71867.94;5026020;28;20221;-78
2023/05/23 08:02:16;;;;;;;41.37;24.00;;;;;;;-143.21;84.20;71858.03;5025618;28;20227;-78
2023/05/23 08:04:48;;;;;;;37.93;22.60;;;;;;;-143.21;82.62;71832.25;5024258;28;20688;-76
2023/05/23 08:07:16;;;;;;;42.60;24.40;;;;;;;-143.21;83.73;71818.38;5027630;28;20202;-78
2023/05/23 08:09:43;;;;;;;47.83;24.77;;;;;;;-143.21;82.33;71796.56;5024623;28;20215;-77
2023/05/23 08:12:11;;;;;;;40.77;23.13;;;;;;;-143.21;80.99;71780.69;5024327;28;20566;-77
2023/05/23 08:14:38;;;;;;;50.30;24.50;;;;;;;-143.21;83.31;71772.75;5024536;28;20270;-78
2023/05/23 08:17:05;;;;;;;48.03;23.70;;;;;;;-143.21;84.15;71745.00;5024998;28;20198;-79
2023/05/23 08:19:32;;;;;;;43.67;24.53;;;;;;;-143.21;81.86;71725.16;5023284;28;20199;-79
2023/05/23 08:22:00;;;;;;;50.43;25.07;;;;;;;-143.21;78.82;71707.31;5024045;28;20200;-77
2023/05/23 08:24:29;;;;;;;39.63;20.27;;;;;;;-143.21;81.04;71693.44;5025797;28;20569;-77
2023/05/23 08:26:56;;;;;;;38.70;22.08;;;;;;;-143.21;80.10;71667.66;5025990;28;20195;-77
2023/05/23 08:29:26;;;;;;;51.72;23.60;;;;;;;-143.21;77.48;71653.78;5024369;28;20234;-77
2023/05/23 08:31:53;;;;;;;35.60;18.60;;;;;;;-143.21;78.61;71630.00;5025140;28;20201;-77
2023/05/23 08:34:23;;;;;;;33.83;20.58;;;;;;;-143.21;77.23;71606.22;5023599;28;20195;-76
2023/05/23 08:36:49;;;;;;;40.03;22.95;;;;;;;-143.21;75.38;71586.38;5025521;28;20198;-76
2023/05/23 08:39:18;;;;;;;37.35;21.80;;;;;;;-143.21;74.72;71572.50;5025601;28;20261;-76
2023/05/23 08:41:45;;;;;;;47.03;21.58;;;;;;;-143.21;73.39;71574.47;5023938;28;20199;-77
2023/05/23 08:44:12;;;;;;;35.10;21.15;;;;;;;-143.21;75.22;71578.44;5025344;28;20235;-76
2023/05/23 08:46:44;;;;;;;43.58;23.40;;;;;;;-143.21;74.07;71560.59;5027795;28;20202;-83
2023/05/23 08:49:13;;;;;;;43.33;22.95;;;;;;;-143.21;73.97;71554.66;5035532;28;20211;-83
2023/05/23 08:51:43;;;;;;;35.58;20.80;;;;;;;-143.21;73.38;71550.69;5035654;28;20190;-82
2023/05/23 08:54:12;;;;;;;27.02;17.23;;;;;;;-143.21;73.28;71540.78;5034445;28;20202;-83
2023/05/23 08:56:40;;;;;;;31.10;18.88;;;;;;;-143.21;71.90;71526.91;5032080;28;20191;-82
2023/05/23 08:59:09;;;;;;;31.27;20.10;;;;;;;-143.21;70.97;71513.03;5029988;28;20199;-82
2023/05/23 09:01:40;;;;;;;27.77;18.02;;;;;;;-143.21;71.33;71513.03;5032299;28;20238;-81
2023/05/23 09:04:07;;;;;;;33.83;18.48;;;;;;;-143.21;71.99;71501.13;5032448;28;20217;-81
2023/05/23 09:06:35;;;;;;;27.55;16.85;;;;;;;-143.21;71.13;71495.19;5031048;28;20605;-81
2023/05/23 09:09:02;;;;;;;32.47;17.55;;;;;;;-143.21;71.16;71491.22;5029423;28;20214;-82
2023/05/23 09:11:32;;;;;;;22.35;13.45;;;;;;;-143.21;70.31;71473.38;5031761;28;20183;-82
2023/05/23 09:14:02;;;;;;;18.25;12.10;;;;;;;-143.21;68.44;71457.50;5031752;28;20202;-82
2023/05/23 09:16:35;;;;;;;17.70;10.52;;;;;;;-143.21;67.78;71443.63;5031606;28;20268;-82
2023/05/23 09:19:10;;;;;;;18.42;12.13;;;;;;;-143.21;67.95;71429.75;5029954;28;20194;-82
2023/05/23 09:21:38;;;;;;;15.07;9.25;;;;;;;-143.21;64.93;71419.84;5031607;28;20178;-81
2023/05/23 09:24:06;;;;;;;14.13;8.25;;;;;;;-143.21;63.35;71409.91;5031092;28;20199;-81
2023/05/23 09:26:32;;;;;;;8.65;6.80;;;;;;;-143.21;62.79;71407.94;5031451;28;20198;-81
2023/05/23 09:29:01;;;;;;;12.05;7.32;;;;;;;-143.21;60.88;71407.94;5030921;28;20728;-81
2023/05/23 09:31:28;;;;;;;9.75;6.93;;;;;;;-143.21;63.75;71394.06;5031126;28;20191;-81
2023/05/23 09:33:55;;;;;;;9.43;5.65;;;;;;;-143.21;59.49;71380.19;5031246;28;20199;-81
2023/05/23 09:36:22;;;;;;;10.57;5.50;;;;;;;-143.21;57.52;71378.19;5030938;28;20661;-82
2023/05/23 09:38:51;;;;;;;8.63;5.53;;;;;;;-143.21;58.84;71374.22;5032237;28;20190;-82
2023/05/23 09:41:20;;;;;;;11.13;6.15;;;;;;;-143.21;60.05;71362.34;5031382;28;20199;-82
2023/05/23 09:43:50;;;;;;;7.95;5.45;;;;;;;-143.21;59.16;71338.53;5031035;28;20661;-81
2023/05/23 09:46:20;;;;;;;10.38;5.85;;;;;;;-143.21;57.09;71334.59;5030360;28;20281;-82
2023/05/23 09:48:47;;;;;;;13.93;5.65;;;;;;;-143.21;58.55;71322.69;5030830;28;20193;-82
2023/05/23 09:51:14;;;;;;;6.38;5.40;;;;;;;-143.21;58.80;71302.84;5031175;28;20260;-82
2023/05/23 09:53:41;;;;;;;8.45;5.65;;;;;;;-143.21;56.66;71288.97;5028106;28;20191;-82
2023/05/23 09:56:11;;;;;;;8.52;5.88;;;;;;;-143.21;57.99;71283.03;5031886;28;20231;-81
2023/05/23 09:58:39;;;;;;;9.27;5.40;;;;;;;-143.21;57.69;71267.19;5032543;28;20218;-82
2023/05/23 10:01:10;;;;;;;9.27;4.85;;;;;;;-143.21;56.50;71245.38;5030706;28;20650;-81
2023/05/23 10:03:45;;;;;;;11.20;5.53;;;;;;;-143.21;55.18;71235.44;5031236;28;20198;-82
2023/05/23 10:06:21;;;;;;;6.75;4.95;;;;;;;-143.21;53.22;71221.56;5030790;28;20531;-82
2023/05/23 10:08:55;;;;;;;10.35;5.30;;;;;;;-143.21;53.81;71205.72;5029612;28;20186;-81
2023/05/23 10:11:51;;;;;;;7.90;5.22;;;;;;;-143.21;53.90;71185.88;5025564;28;20250;-83
2023/05/23 10:14:18;;;;;;;11.52;6.10;;;;;;;-143.21;53.02;71164.09;5030322;28;20198;-83
2023/05/23 10:16:56;;;;;;;7.32;5.20;;;;;;;-143.21;53.04;71150.22;5031044;28;20276;-84
2023/05/23 10:19:31;;;;;;;8.57;4.97;;;;;;;-143.21;51.86;71126.41;5030634;28;20199;-82
2023/05/23 10:22:01;;;;;;;6.82;5.00;;;;;;;-143.21;50.56;71112.53;5030759;28;20174;-83
2023/05/23 10:24:29;;;;;;;8.65;4.82;;;;;;;-143.21;51.39;71094.69;5031488;28;20190;-82
2023/05/23 10:26:57;;;;;;;7.53;4.65;;;;;;;-143.21;50.39;71080.81;5030168;28;20252;-83
2023/05/23 10:29:24;;;;;;;7.65;4.38;;;;;;;-143.21;49.89;71057.03;5030806;28;20195;-82
2023/05/23 10:31:53;;;;;;;8.75;4.88;;;;;;;-143.21;48.87;71039.19;5030983;28;20195;-83
2023/05/23 10:34:27;;;;;;;19.38;4.88;;;;;;;-143.21;48.89;71025.31;5030449;28;20657;-83
2023/05/23 10:37:00;;;;;;;8.63;4.70;;;;;;;-143.21;49.02;71003.50;5030619;28;20214;-83
2023/05/23 10:39:49;;;;;;;6.03;4.75;;;;;;;-143.21;47.84;70967.81;5031804;28;20187;-83
2023/05/23 10:42:23;;;;;;;7.65;4.95;;;;;;;-143.21;47.84;70944.03;5017218;28;20201;-82
2023/05/23 10:44:50;;;;;;;7.35;4.93;;;;;;;-143.21;48.19;70914.31;5030944;28;20270;-81
2023/05/23 10:47:27;;;;;;;5.70;4.40;;;;;;;-143.21;46.63;70896.47;5030143;28;20206;-83
2023/05/23 10:49:56;;;;;;;5.88;4.22;;;;;;;-143.21;45.39;70880.59;5030079;28;20740;-83
2023/05/23 10:52:26;;;;;;;5.13;4.28;;;;;;;-143.21;43.58;70878.63;5027758;28;20677;-83
2023/05/23 10:54:55;;;;;;;9.82;4.00;;;;;;;-143.21;44.39;70854.84;5030030;28;20252;-78
2023/05/23 10:57:26;;;;;;;6.53;4.25;;;;;;;-143.21;44.72;70835.00;5025122;28;20230;-77
2023/05/23 10:59:53;;;;;;;5.03;3.97;;;;;;;-143.21;41.54;70803.28;5032470;28;20201;-77
2023/05/23 11:02:26;;;;;;;6.13;4.10;;;;;;;-143.21;41.67;70807.25;5033721;28;20229;-77
2023/05/23 11:05:25;;;;;;;7.93;3.88;;;;;;;-143.21;41.08;70793.38;5034343;28;20275;-77
2023/05/23 11:08:08;;;;;;;5.70;4.20;;;;;;;-143.21;40.86;70787.44;5032343;28;20211;-77
2023/05/23 11:10:53;;;;;;;8.75;4.28;;;;;;;-143.21;41.25;70749.78;5030657;28;20272;-77